Terminal Aerodrome Forecast
Issued by NWS Louisville, KY

Home | Current Version | Previous Version | Text Only | Print | Product List | Glossary On
Versions: 1 2 3 4 5 6 7 8 9 10 11 12 13 14 15 16 17 18 19
000
FTUS43 KLMK 170500
TAFLEX
TAF
KLEX 170520Z 1706/1806 16004KT P6SM VCSH OVC090
      TEMPO 1706/1708 5SM RA BR
     FM171300 19007KT P6SM OVC070
     FM172100 18006KT P6SM -SHRA BKN060=

USA.gov is the U.S. government's official web portal to all federal, state and local government web resources and services.